Startpagina
METAR-TAF:

METAR-TAF

Vliegvelden :

Internationale luchthaven van Bahrein

Bahrein, Bahrein

breedte: 26-16N, lengte: 050-39E, hoogte: 2 m

Actueel weer

Dit bericht is 37 minuten geleden gemaakt, om 07:30 UTC
Wind 11 kt uit het noordwesten
Temperatuur 35°C
Vochtigheid 50%
Druk 1003 hPa
Zicht 10 km of meer
geen wolken onder 1500 m en geen cumulonimbus

METAR: OBBI 170730Z 31011KT CAVOK 35/23 Q1003 NOSIG

Tijdstip: 11:07 (08:07 UTC)

Verwachting

Dit bericht is 3 uur en het 7 minuten geleden gemaakt, om 05:00 UTC
Verwachting geldig van 17 om 06 UTC tot 18 om 12 UTC
Wind 10 kt uit het westnoordwesten
Zicht: 9000 m
Wijzigt naar
van 17 om 17 UTC tot 17 om 20 UTC
Wind 5 kt uit het westzuidwesten
Tijdelijke
van 17 om 18 UTC tot 18 om 06 UTC
Zicht: 4500 m
Heiigheid

TAF: OBBI 170500Z 1706/1812 30010KT 9000 NSC BECMG 1717/1720 25005KT TEMPO 1718/1806 4500 HZ

Waarnemingen en weersverwachtingen van meer dan 4000 vliegvelden (METAR en TAF).

De beschikbare stations zijn de gele en rode punten op de kaart.

Ga met uw muis naar het station om de naam te zien.

Klik dan om waarnemingen en weersverwachtingen te zien.

kaart wijzigen: klik op de groene knoppen met een zwart kruis om in te zoomen, op de groene knop met een streepje om uit te zoomen of op de groene pijlen voor aangrenzende kaarten.


METAR-TAF: